sensor_id;sensor_type;location;lat;lon;timestamp;pressure;altitude;pressure_sealevel;temperature;humidity
35918;BME280;22011;59.912;30.300;2023-03-29T00:02:05;100625.72;;;1.75;77.23
35918;BME280;22011;59.912;30.300;2023-03-29T00:04:35;100642.94;;;1.79;77.49
35918;BME280;22011;59.912;30.300;2023-03-29T00:07:03;100630.50;;;1.81;77.90
35918;BME280;22011;59.912;30.300;2023-03-29T00:09:31;100639.78;;;1.74;77.23
35918;BME280;22011;59.912;30.300;2023-03-29T00:11:59;100635.22;;;1.64;77.17
35918;BME280;22011;59.912;30.300;2023-03-29T00:14:27;100638.91;;;1.62;77.18
35918;BME280;22011;59.912;30.300;2023-03-29T00:16:56;100643.09;;;1.64;77.72
35918;BME280;22011;59.912;30.300;2023-03-29T00:19:24;100637.09;;;1.62;77.31
35918;BME280;22011;59.912;30.300;2023-03-29T00:21:53;100641.06;;;1.68;77.66
35918;BME280;22011;59.912;30.300;2023-03-29T00:24:21;100640.47;;;1.64;77.62
35918;BME280;22011;59.912;30.300;2023-03-29T00:26:48;100641.91;;;1.69;77.67
35918;BME280;22011;59.912;30.300;2023-03-29T00:29:16;100629.84;;;1.66;77.27
35918;BME280;22011;59.912;30.300;2023-03-29T00:31:44;100638.34;;;1.70;77.43
35918;BME280;22011;59.912;30.300;2023-03-29T00:34:17;100642.31;;;1.75;77.10
35918;BME280;22011;59.912;30.300;2023-03-29T00:36:45;100638.84;;;1.75;77.56
35918;BME280;22011;59.912;30.300;2023-03-29T00:39:17;100644.94;;;1.75;77.82
35918;BME280;22011;59.912;30.300;2023-03-29T00:41:46;100640.03;;;1.71;77.95
35918;BME280;22011;59.912;30.300;2023-03-29T00:44:52;100643.75;;;1.79;78.28
35918;BME280;22011;59.912;30.300;2023-03-29T00:47:24;100654.09;;;1.70;78.01
35918;BME280;22011;59.912;30.300;2023-03-29T00:49:54;100654.44;;;1.65;77.89
35918;BME280;22011;59.912;30.300;2023-03-29T00:52:26;100649.06;;;1.67;77.98
35918;BME280;22011;59.912;30.300;2023-03-29T00:54:58;100660.81;;;1.74;78.25
35918;BME280;22011;59.912;30.300;2023-03-29T00:57:29;100661.59;;;1.63;78.08
35918;BME280;22011;59.912;30.300;2023-03-29T00:59:58;100665.28;;;1.60;77.82
35918;BME280;22011;59.912;30.300;2023-03-29T01:02:28;100659.19;;;1.60;77.58
35918;BME280;22011;59.912;30.300;2023-03-29T01:05:03;100662.09;;;1.68;77.93
35918;BME280;22011;59.912;30.300;2023-03-29T01:07:37;100636.66;;;1.69;77.78
35918;BME280;22011;59.912;30.300;2023-03-29T01:10:12;100628.06;;;1.67;78.00
35918;BME280;22011;59.912;30.300;2023-03-29T01:12:44;100635.59;;;1.71;77.71
35918;BME280;22011;59.912;30.300;2023-03-29T01:15:17;100636.44;;;1.72;77.47
35918;BME280;22011;59.912;30.300;2023-03-29T01:17:47;100650.13;;;1.64;77.55
35918;BME280;22011;59.912;30.300;2023-03-29T01:20:19;100664.59;;;1.70;77.89
35918;BME280;22011;59.912;30.300;2023-03-29T01:23:04;100659.75;;;1.76;77.78
35918;BME280;22011;59.912;30.300;2023-03-29T01:25:44;100661.03;;;1.71;77.53
35918;BME280;22011;59.912;30.300;2023-03-29T01:28:17;100672.59;;;1.68;77.38
35918;BME280;22011;59.912;30.300;2023-03-29T01:30:49;100671.75;;;1.68;77.75
35918;BME280;22011;59.912;30.300;2023-03-29T01:33:20;100675.84;;;1.72;77.53
35918;BME280;22011;59.912;30.300;2023-03-29T01:35:53;100672.38;;;1.71;77.66
35918;BME280;22011;59.912;30.300;2023-03-29T01:38:26;100668.19;;;1.69;77.72
35918;BME280;22011;59.912;30.300;2023-03-29T01:40:56;100666.72;;;1.64;77.28
35918;BME280;22011;59.912;30.300;2023-03-29T01:43:30;100686.34;;;1.72;77.42
35918;BME280;22011;59.912;30.300;2023-03-29T01:46:04;100694.16;;;1.60;77.03
35918;BME280;22011;59.912;30.300;2023-03-29T01:48:39;100668.00;;;1.59;77.46
35918;BME280;22011;59.912;30.300;2023-03-29T01:51:13;100672.19;;;1.61;77.28
35918;BME280;22011;59.912;30.300;2023-03-29T01:53:44;100674.72;;;1.63;77.21
35918;BME280;22011;59.912;30.300;2023-03-29T01:56:16;100679.13;;;1.62;77.03
35918;BME280;22011;59.912;30.300;2023-03-29T01:58:49;100679.97;;;1.63;77.03
35918;BME280;22011;59.912;30.300;2023-03-29T02:01:20;100666.53;;;1.55;77.00
35918;BME280;22011;59.912;30.300;2023-03-29T02:03:53;100655.09;;;1.56;77.26
35918;BME280;22011;59.912;30.300;2023-03-29T02:06:25;100653.53;;;1.53;76.84
35918;BME280;22011;59.912;30.300;2023-03-29T02:08:53;100651.00;;;1.52;76.58
35918;BME280;22011;59.912;30.300;2023-03-29T02:11:22;100638.00;;;1.50;76.76
35918;BME280;22011;59.912;30.300;2023-03-29T02:13:52;100653.00;;;1.48;77.47
35918;BME280;22011;59.912;30.300;2023-03-29T02:16:20;100650.09;;;1.40;77.39
35918;BME280;22011;59.912;30.300;2023-03-29T02:18:49;100644.34;;;1.35;77.50
35918;BME280;22011;59.912;30.300;2023-03-29T02:21:22;100638.97;;;1.37;77.46
35918;BME280;22011;59.912;30.300;2023-03-29T02:23:52;100637.84;;;1.28;77.23
35918;BME280;22011;59.912;30.300;2023-03-29T02:26:22;100639.00;;;1.24;77.32
35918;BME280;22011;59.912;30.300;2023-03-29T02:28:51;100650.66;;;1.20;77.09
35918;BME280;22011;59.912;30.300;2023-03-29T02:31:23;100647.19;;;1.32;78.03
35918;BME280;22011;59.912;30.300;2023-03-29T02:33:55;100658.72;;;1.29;77.70
35918;BME280;22011;59.912;30.300;2023-03-29T02:36:28;100646.66;;;1.27;77.60
35918;BME280;22011;59.912;30.300;2023-03-29T02:38:59;100649.81;;;1.32;77.70
35918;BME280;22011;59.912;30.300;2023-03-29T02:41:31;100653.47;;;1.29;77.17
35918;BME280;22011;59.912;30.300;2023-03-29T02:44:02;100655.06;;;1.32;77.25
35918;BME280;22011;59.912;30.300;2023-03-29T02:46:33;100654.88;;;1.22;77.62
35918;BME280;22011;59.912;30.300;2023-03-29T02:49:03;100673.34;;;1.21;78.01
35918;BME280;22011;59.912;30.300;2023-03-29T02:51:33;100673.78;;;1.15;77.64
35918;BME280;22011;59.912;30.300;2023-03-29T02:54:05;100668.09;;;1.21;78.14
35918;BME280;22011;59.912;30.300;2023-03-29T02:56:42;100668.94;;;1.21;78.18
35918;BME280;22011;59.912;30.300;2023-03-29T02:59:12;100679.22;;;1.12;77.84
35918;BME280;22011;59.912;30.300;2023-03-29T03:01:40;100682.81;;;1.11;78.27
35918;BME280;22011;59.912;30.300;2023-03-29T03:04:09;100688.78;;;1.13;78.27
35918;BME280;22011;59.912;30.300;2023-03-29T03:06:37;100693.09;;;1.14;77.86
35918;BME280;22011;59.912;30.300;2023-03-29T03:09:05;100692.13;;;1.15;77.74
35918;BME280;22011;59.912;30.300;2023-03-29T03:11:36;100691.31;;;1.14;77.56
35918;BME280;22011;59.912;30.300;2023-03-29T03:14:04;100699.06;;;1.16;77.70
35918;BME280;22011;59.912;30.300;2023-03-29T03:16:35;100703.03;;;1.21;77.59
35918;BME280;22011;59.912;30.300;2023-03-29T03:19:02;100706.63;;;1.20;77.96
35918;BME280;22011;59.912;30.300;2023-03-29T03:21:30;100705.56;;;1.23;77.90
35918;BME280;22011;59.912;30.300;2023-03-29T03:23:59;100708.94;;;1.25;77.62
35918;BME280;22011;59.912;30.300;2023-03-29T03:26:27;100720.59;;;1.21;77.58
35918;BME280;22011;59.912;30.300;2023-03-29T03:28:56;100725.94;;;1.19;77.67
35918;BME280;22011;59.912;30.300;2023-03-29T03:31:45;100728.88;;;1.27;77.78
35918;BME280;22011;59.912;30.300;2023-03-29T03:34:31;100731.59;;;1.26;77.36
35918;BME280;22011;59.912;30.300;2023-03-29T03:37:00;100727.19;;;1.26;77.81
35918;BME280;22011;59.912;30.300;2023-03-29T03:39:30;100721.00;;;1.27;77.77
35918;BME280;22011;59.912;30.300;2023-03-29T03:41:59;100724.78;;;1.23;77.66
35918;BME280;22011;59.912;30.300;2023-03-29T03:44:27;100721.41;;;1.21;77.69
35918;BME280;22011;59.912;30.300;2023-03-29T03:47:17;100729.41;;;1.20;77.56
35918;BME280;22011;59.912;30.300;2023-03-29T03:49:45;100723.63;;;1.15;77.78
35918;BME280;22011;59.912;30.300;2023-03-29T03:52:15;100725.41;;;1.14;77.71
35918;BME280;22011;59.912;30.300;2023-03-29T03:54:42;100717.66;;;1.13;77.83
35918;BME280;22011;59.912;30.300;2023-03-29T03:57:37;100721.94;;;1.14;77.88
35918;BME280;22011;59.912;30.300;2023-03-29T04:00:11;100719.53;;;1.11;77.85
35918;BME280;22011;59.912;30.300;2023-03-29T04:02:54;100715.22;;;1.10;77.73
35918;BME280;22011;59.912;30.300;2023-03-29T04:05:22;100720.69;;;1.07;77.61
35918;BME280;22011;59.912;30.300;2023-03-29T04:07:50;100719.84;;;1.06;77.25
35918;BME280;22011;59.912;30.300;2023-03-29T04:10:50;100727.00;;;1.04;77.20
35918;BME280;22011;59.912;30.300;2023-03-29T04:13:23;100729.75;;;1.03;77.45
35918;BME280;22011;59.912;30.300;2023-03-29T04:16:26;100728.56;;;1.07;77.59
35918;BME280;22011;59.912;30.300;2023-03-29T04:18:58;100724.06;;;1.09;77.30
35918;BME280;22011;59.912;30.300;2023-03-29T04:21:26;100725.22;;;1.05;77.25
35918;BME280;22011;59.912;30.300;2023-03-29T04:23:53;100722.59;;;1.05;77.67
35918;BME280;22011;59.912;30.300;2023-03-29T04:26:21;100720.19;;;1.02;77.51
35918;BME280;22011;59.912;30.300;2023-03-29T04:28:55;100719.13;;;1.04;77.72
35918;BME280;22011;59.912;30.300;2023-03-29T04:31:43;100711.97;;;1.06;77.27
35918;BME280;22011;59.912;30.300;2023-03-29T04:34:27;100719.75;;;1.08;76.99
35918;BME280;22011;59.912;30.300;2023-03-29T04:36:55;100723.75;;;1.01;76.69
35918;BME280;22011;59.912;30.300;2023-03-29T04:39:24;100718.63;;;0.99;77.15
35918;BME280;22011;59.912;30.300;2023-03-29T04:41:58;100719.47;;;1.00;76.87
35918;BME280;22011;59.912;30.300;2023-03-29T04:44:29;100725.44;;;1.02;76.85
35918;BME280;22011;59.912;30.300;2023-03-29T04:46:59;100729.97;;;1.00;76.48
35918;BME280;22011;59.912;30.300;2023-03-29T04:49:53;100734.06;;;1.04;76.47
35918;BME280;22011;59.912;30.300;2023-03-29T04:52:30;100738.94;;;1.08;76.16
35918;BME280;22011;59.912;30.300;2023-03-29T04:54:59;100742.72;;;1.17;76.15
35918;BME280;22011;59.912;30.300;2023-03-29T04:57:40;100739.47;;;1.26;76.35
35918;BME280;22011;59.912;30.300;2023-03-29T05:00:32;100741.38;;;1.24;76.05
35918;BME280;22011;59.912;30.300;2023-03-29T05:03:06;100736.53;;;1.18;75.59
35918;BME280;22011;59.912;30.300;2023-03-29T05:05:42;100740.94;;;1.17;75.49
35918;BME280;22011;59.912;30.300;2023-03-29T05:08:10;100736.22;;;1.10;75.29
35918;BME280;22011;59.912;30.300;2023-03-29T05:10:57;100744.09;;;1.10;75.45
35918;BME280;22011;59.912;30.300;2023-03-29T05:13:27;100740.53;;;1.11;75.24
35918;BME280;22011;59.912;30.300;2023-03-29T05:15:55;100730.25;;;1.08;75.13
35918;BME280;22011;59.912;30.300;2023-03-29T05:18:24;100729.19;;;1.10;75.72
35918;BME280;22011;59.912;30.300;2023-03-29T05:20:53;100724.16;;;1.07;75.38
35918;BME280;22011;59.912;30.300;2023-03-29T05:23:21;100719.47;;;1.00;75.47
35918;BME280;22011;59.912;30.300;2023-03-29T05:26:06;100729.97;;;1.00;75.77
35918;BME280;22011;59.912;30.300;2023-03-29T05:28:36;100736.25;;;0.97;75.40
35918;BME280;22011;59.912;30.300;2023-03-29T05:31:04;100735.41;;;0.96;75.67
35918;BME280;22011;59.912;30.300;2023-03-29T05:33:34;100738.03;;;0.96;75.26
35918;BME280;22011;59.912;30.300;2023-03-29T05:36:07;100756.19;;;1.00;75.81
35918;BME280;22011;59.912;30.300;2023-03-29T05:38:41;100768.47;;;0.99;75.70
35918;BME280;22011;59.912;30.300;2023-03-29T05:41:13;100767.63;;;0.98;75.26
35918;BME280;22011;59.912;30.300;2023-03-29T05:44:12;100773.41;;;1.04;75.49
35918;BME280;22011;59.912;30.300;2023-03-29T05:46:42;100777.69;;;1.05;74.97
35918;BME280;22011;59.912;30.300;2023-03-29T05:49:14;100776.25;;;1.01;74.80
35918;BME280;22011;59.912;30.300;2023-03-29T05:51:58;100783.91;;;1.04;75.14
35918;BME280;22011;59.912;30.300;2023-03-29T05:54:29;100785.44;;;1.06;75.21
35918;BME280;22011;59.912;30.300;2023-03-29T05:56:57;100780.53;;;1.02;75.19
35918;BME280;22011;59.912;30.300;2023-03-29T05:59:25;100772.97;;;0.97;75.55
35918;BME280;22011;59.912;30.300;2023-03-29T06:01:55;100774.34;;;1.03;76.16
35918;BME280;22011;59.912;30.300;2023-03-29T06:04:23;100769.81;;;1.05;75.81
35918;BME280;22011;59.912;30.300;2023-03-29T06:07:15;100769.50;;;1.09;75.95
35918;BME280;22011;59.912;30.300;2023-03-29T06:09:52;100772.44;;;1.05;75.78
35918;BME280;22011;59.912;30.300;2023-03-29T06:12:22;100761.94;;;1.05;76.17
35918;BME280;22011;59.912;30.300;2023-03-29T06:14:57;100770.53;;;1.07;76.15
35918;BME280;22011;59.912;30.300;2023-03-29T06:17:42;100767.91;;;1.07;75.74
35918;BME280;22011;59.912;30.300;2023-03-29T06:20:11;100775.47;;;1.11;76.11
35918;BME280;22011;59.912;30.300;2023-03-29T06:22:44;100779.47;;;1.17;76.57
35918;BME280;22011;59.912;30.300;2023-03-29T06:25:13;100783.56;;;1.21;76.77
35918;BME280;22011;59.912;30.300;2023-03-29T06:27:44;100780.22;;;1.19;76.23
35918;BME280;22011;59.912;30.300;2023-03-29T06:30:14;100782.09;;;1.17;76.40
35918;BME280;22011;59.912;30.300;2023-03-29T06:32:47;100784.19;;;1.12;76.19
35918;BME280;22011;59.912;30.300;2023-03-29T06:35:26;100784.28;;;1.10;76.27
35918;BME280;22011;59.912;30.300;2023-03-29T06:38:04;100788.50;;;1.13;75.93
35918;BME280;22011;59.912;30.300;2023-03-29T06:40:59;100786.72;;;1.26;76.75
35918;BME280;22011;59.912;30.300;2023-03-29T06:43:30;100779.78;;;1.25;76.25
35918;BME280;22011;59.912;30.300;2023-03-29T06:46:06;100777.47;;;1.33;75.59
35918;BME280;22011;59.912;30.300;2023-03-29T06:48:53;100791.97;;;1.39;75.56
35918;BME280;22011;59.912;30.300;2023-03-29T06:51:22;100783.16;;;1.40;75.49
35918;BME280;22011;59.912;30.300;2023-03-29T06:53:52;100774.84;;;1.46;75.71
35918;BME280;22011;59.912;30.300;2023-03-29T06:56:19;100775.16;;;1.41;75.28
35918;BME280;22011;59.912;30.300;2023-03-29T06:58:56;100777.38;;;1.35;75.10
35918;BME280;22011;59.912;30.300;2023-03-29T07:01:41;100767.50;;;1.38;74.96
35918;BME280;22011;59.912;30.300;2023-03-29T07:04:19;100770.66;;;1.43;75.20
35918;BME280;22011;59.912;30.300;2023-03-29T07:07:06;100776.00;;;1.42;74.78
35918;BME280;22011;59.912;30.300;2023-03-29T07:09:47;100776.63;;;1.45;75.05
35918;BME280;22011;59.912;30.300;2023-03-29T07:12:38;100778.31;;;1.46;75.06
35918;BME280;22011;59.912;30.300;2023-03-29T07:15:08;100774.84;;;1.46;75.23
35918;BME280;22011;59.912;30.300;2023-03-29T07:18:02;100790.91;;;1.41;75.90
35918;BME280;22011;59.912;30.300;2023-03-29T07:20:31;100803.84;;;1.44;75.72
35918;BME280;22011;59.912;30.300;2023-03-29T07:23:05;100809.41;;;1.52;75.94
35918;BME280;22011;59.912;30.300;2023-03-29T07:25:36;100819.38;;;1.60;75.81
35918;BME280;22011;59.912;30.300;2023-03-29T07:28:04;100827.66;;;1.54;75.23
35918;BME280;22011;59.912;30.300;2023-03-29T07:30:33;100828.72;;;1.51;75.30
35918;BME280;22011;59.912;30.300;2023-03-29T07:33:21;100818.84;;;1.55;75.40
35918;BME280;22011;59.912;30.300;2023-03-29T07:35:55;100818.84;;;1.55;75.56
35918;BME280;22011;59.912;30.300;2023-03-29T07:38:23;100823.25;;;1.54;75.08
35918;BME280;22011;59.912;30.300;2023-03-29T07:41:01;100817.16;;;1.54;74.91
35918;BME280;22011;59.912;30.300;2023-03-29T07:43:41;100805.81;;;1.53;75.55
35918;BME280;22011;59.912;30.300;2023-03-29T07:46:11;100804.16;;;1.52;75.46
35918;BME280;22011;59.912;30.300;2023-03-29T07:48:39;100808.88;;;1.60;75.17
35918;BME280;22011;59.912;30.300;2023-03-29T07:51:09;100811.69;;;1.70;75.27
35918;BME280;22011;59.912;30.300;2023-03-29T07:53:44;100806.44;;;1.70;74.36
35918;BME280;22011;59.912;30.300;2023-03-29T07:56:42;100806.75;;;1.78;75.28
35918;BME280;22011;59.912;30.300;2023-03-29T07:59:28;100812.72;;;1.80;74.87
35918;BME280;22011;59.912;30.300;2023-03-29T08:02:09;100807.03;;;1.86;74.79
35918;BME280;22011;59.912;30.300;2023-03-29T08:04:40;100803.06;;;1.80;74.91
35918;BME280;22011;59.912;30.300;2023-03-29T08:07:14;100803.78;;;1.82;75.45
35918;BME280;22011;59.912;30.300;2023-03-29T08:09:52;100809.88;;;1.83;75.46
35918;BME280;22011;59.912;30.300;2023-03-29T08:12:28;100812.50;;;1.83;74.39
35918;BME280;22011;59.912;30.300;2023-03-29T08:14:57;100808.09;;;1.83;74.78
35918;BME280;22011;59.912;30.300;2023-03-29T08:17:32;100804.19;;;1.89;74.88
35918;BME280;22011;59.912;30.300;2023-03-29T08:20:01;100807.97;;;1.98;74.64
35918;BME280;22011;59.912;30.300;2023-03-29T08:22:31;100809.84;;;1.95;73.52
35918;BME280;22011;59.912;30.300;2023-03-29T08:25:06;100807.75;;;2.01;74.62
35918;BME280;22011;59.912;30.300;2023-03-29T08:27:41;100807.44;;;1.92;73.66
35918;BME280;22011;59.912;30.300;2023-03-29T08:30:12;100807.03;;;1.86;73.79
35918;BME280;22011;59.912;30.300;2023-03-29T08:32:40;100817.88;;;1.81;73.82
35918;BME280;22011;59.912;30.300;2023-03-29T08:35:09;100821.34;;;1.82;74.13
35918;BME280;22011;59.912;30.300;2023-03-29T08:37:52;100828.69;;;1.77;74.08
35918;BME280;22011;59.912;30.300;2023-03-29T08:40:22;100824.91;;;1.81;74.64
35918;BME280;22011;59.912;30.300;2023-03-29T08:43:05;100822.59;;;1.89;74.84
35918;BME280;22011;59.912;30.300;2023-03-29T08:46:10;100820.91;;;1.88;74.48
35918;BME280;22011;59.912;30.300;2023-03-29T08:48:44;100823.88;;;1.71;73.82
35918;BME280;22011;59.912;30.300;2023-03-29T08:51:25;100824.09;;;1.68;74.41
35918;BME280;22011;59.912;30.300;2023-03-29T08:53:56;100827.97;;;1.62;74.43
35918;BME280;22011;59.912;30.300;2023-03-29T08:56:39;100832.91;;;1.67;74.70
35918;BME280;22011;59.912;30.300;2023-03-29T08:59:26;100841.94;;;1.75;74.52
35918;BME280;22011;59.912;30.300;2023-03-29T09:01:59;100838.69;;;1.72;73.88
35918;BME280;22011;59.912;30.300;2023-03-29T09:04:30;100851.59;;;1.75;74.28
35918;BME280;22011;59.912;30.300;2023-03-29T09:07:34;100855.41;;;1.71;74.02
35918;BME280;22011;59.912;30.300;2023-03-29T09:10:03;100857.28;;;1.69;73.69
35918;BME280;22011;59.912;30.300;2023-03-29T09:12:44;100847.09;;;1.77;74.50
35918;BME280;22011;59.912;30.300;2023-03-29T09:15:22;100855.41;;;1.71;74.51
35918;BME280;22011;59.912;30.300;2023-03-29T09:18:05;100854.56;;;1.70;74.59
35918;BME280;22011;59.912;30.300;2023-03-29T09:20:46;100849.09;;;1.73;74.52
35918;BME280;22011;59.912;30.300;2023-03-29T09:23:37;100841.00;;;1.76;74.79
35918;BME280;22011;59.912;30.300;2023-03-29T09:26:39;100832.81;;;1.68;73.89
35918;BME280;22011;59.912;30.300;2023-03-29T09:29:44;100837.22;;;1.68;74.68
35918;BME280;22011;59.912;30.300;2023-03-29T09:32:20;100830.72;;;1.48;73.94
35918;BME280;22011;59.912;30.300;2023-03-29T09:35:01;100821.06;;;1.48;74.18
35918;BME280;22011;59.912;30.300;2023-03-29T09:37:32;100815.38;;;1.54;74.16
35918;BME280;22011;59.912;30.300;2023-03-29T09:40:05;100802.78;;;1.59;73.92
35918;BME280;22011;59.912;30.300;2023-03-29T09:43:08;100797.94;;;1.53;74.04
35918;BME280;22011;59.912;30.300;2023-03-29T09:45:39;100785.44;;;1.44;73.79
35918;BME280;22011;59.912;30.300;2023-03-29T09:48:12;100781.47;;;1.39;73.73
35918;BME280;22011;59.912;30.300;2023-03-29T09:50:45;100778.94;;;1.37;74.06
35918;BME280;22011;59.912;30.300;2023-03-29T09:53:14;100779.16;;;1.34;73.38
35918;BME280;22011;59.912;30.300;2023-03-29T09:55:49;100785.13;;;1.36;73.67
35918;BME280;22011;59.912;30.300;2023-03-29T09:58:31;100789.44;;;1.37;73.72
35918;BME280;22011;59.912;30.300;2023-03-29T10:01:02;100790.72;;;1.44;73.28
35918;BME280;22011;59.912;30.300;2023-03-29T10:03:32;100778.91;;;1.62;73.28
35918;BME280;22011;59.912;30.300;2023-03-29T10:06:11;100783.31;;;1.75;72.91
35918;BME280;22011;59.912;30.300;2023-03-29T10:08:46;100787.00;;;1.72;71.86
35918;BME280;22011;59.912;30.300;2023-03-29T10:11:20;100805.28;;;1.74;72.43
35918;BME280;22011;59.912;30.300;2023-03-29T10:13:51;100814.00;;;1.61;72.26
35918;BME280;22011;59.912;30.300;2023-03-29T10:16:23;100811.06;;;1.53;72.35
35918;BME280;22011;59.912;30.300;2023-03-29T10:18:53;100805.94;;;1.52;72.75
35918;BME280;22011;59.912;30.300;2023-03-29T10:21:21;100810.97;;;1.42;72.90
35918;BME280;22011;59.912;30.300;2023-03-29T10:23:56;100806.97;;;1.49;74.04
35918;BME280;22011;59.912;30.300;2023-03-29T10:26:27;100801.31;;;1.43;73.24
35918;BME280;22011;59.912;30.300;2023-03-29T10:28:56;100799.31;;;1.46;73.53
35918;BME280;22011;59.912;30.300;2023-03-29T10:31:28;100809.41;;;1.52;73.63
35918;BME280;22011;59.912;30.300;2023-03-29T10:34:01;100805.72;;;1.55;73.77
35918;BME280;22011;59.912;30.300;2023-03-29T10:36:30;100803.63;;;1.47;73.64
35918;BME280;22011;59.912;30.300;2023-03-29T10:38:59;100813.81;;;1.52;73.64
35918;BME280;22011;59.912;30.300;2023-03-29T10:41:28;100815.06;;;1.46;73.56
35918;BME280;22011;59.912;30.300;2023-03-29T10:44:02;100818.00;;;1.54;74.06
35918;BME280;22011;59.912;30.300;2023-03-29T10:46:32;100814.13;;;1.47;73.21
35918;BME280;22011;59.912;30.300;2023-03-29T10:49:03;100820.53;;;1.43;73.54
35918;BME280;22011;59.912;30.300;2023-03-29T10:51:35;100824.72;;;1.33;73.59
35918;BME280;22011;59.912;30.300;2023-03-29T10:54:03;100820.31;;;1.21;73.51
35918;BME280;22011;59.912;30.300;2023-03-29T10:56:36;100818.63;;;1.33;75.09
35918;BME280;22011;59.912;30.300;2023-03-29T10:59:27;100826.50;;;1.45;75.53
35918;BME280;22011;59.912;30.300;2023-03-29T11:02:35;100834.91;;;1.50;75.38
35918;BME280;22011;59.912;30.300;2023-03-29T11:05:17;100844.78;;;1.34;74.44
35918;BME280;22011;59.912;30.300;2023-03-29T11:07:58;100859.47;;;1.24;74.58
35918;BME280;22011;59.912;30.300;2023-03-29T11:10:35;100879.50;;;1.12;74.77
35918;BME280;22011;59.912;30.300;2023-03-29T11:13:14;100885.69;;;1.11;74.65
35918;BME280;22011;59.912;30.300;2023-03-29T11:15:55;100906.78;;;1.10;74.86
35918;BME280;22011;59.912;30.300;2023-03-29T11:18:42;100912.03;;;1.10;74.79
35918;BME280;22011;59.912;30.300;2023-03-29T11:21:20;100932.28;;;1.08;75.00
35918;BME280;22011;59.912;30.300;2023-03-29T11:24:02;100932.47;;;1.05;75.01
35918;BME280;22011;59.912;30.300;2023-03-29T11:26:40;100924.00;;;1.01;74.36
35918;BME280;22011;59.912;30.300;2023-03-29T11:29:17;100924.09;;;1.00;74.30
35918;BME280;22011;59.912;30.300;2023-03-29T11:31:57;100934.59;;;1.00;74.15
35918;BME280;22011;59.912;30.300;2023-03-29T11:34:38;100930.50;;;0.95;73.77
35918;BME280;22011;59.912;30.300;2023-03-29T11:37:19;100931.44;;;0.94;74.47
35918;BME280;22011;59.912;30.300;2023-03-29T11:39:57;100928.22;;;1.04;74.71
35918;BME280;22011;59.912;30.300;2023-03-29T11:42:32;100931.34;;;1.09;74.83
35918;BME280;22011;59.912;30.300;2023-03-29T11:45:02;100922.97;;;1.04;73.98
35918;BME280;22011;59.912;30.300;2023-03-29T11:47:32;100931.66;;;1.04;74.40
35918;BME280;22011;59.912;30.300;2023-03-29T11:50:03;100920.63;;;0.99;74.47
35918;BME280;22011;59.912;30.300;2023-03-29T11:52:36;100936.13;;;0.89;74.83
35918;BME280;22011;59.912;30.300;2023-03-29T11:55:09;100929.50;;;0.84;74.64
35918;BME280;22011;59.912;30.300;2023-03-29T11:57:41;100926.53;;;0.76;74.87
35918;BME280;22011;59.912;30.300;2023-03-29T12:00:13;100928.50;;;0.72;75.44
35918;BME280;22011;59.912;30.300;2023-03-29T12:02:47;100928.13;;;0.78;75.79
35918;BME280;22011;59.912;30.300;2023-03-29T12:05:20;100928.00;;;0.80;75.94
35918;BME280;22011;59.912;30.300;2023-03-29T12:07:52;100916.84;;;0.90;75.87
35918;BME280;22011;59.912;30.300;2023-03-29T12:10:29;100917.69;;;0.91;75.60
35918;BME280;22011;59.912;30.300;2023-03-29T12:13:00;100920.50;;;0.88;74.72
35918;BME280;22011;59.912;30.300;2023-03-29T12:15:34;100920.78;;;0.83;75.24
35918;BME280;22011;59.912;30.300;2023-03-29T12:18:15;100909.16;;;0.87;75.62
35918;BME280;22011;59.912;30.300;2023-03-29T12:20:47;100909.22;;;0.73;75.16
35918;BME280;22011;59.912;30.300;2023-03-29T12:23:19;100901.53;;;0.70;75.62
35918;BME280;22011;59.912;30.300;2023-03-29T12:25:52;100890.81;;;0.87;76.32
35918;BME280;22011;59.912;30.300;2023-03-29T12:28:47;100906.16;;;1.06;75.73
35918;BME280;22011;59.912;30.300;2023-03-29T12:31:22;100901.28;;;0.87;75.21
35918;BME280;22011;59.912;30.300;2023-03-29T12:34:20;100894.50;;;0.97;75.38
35918;BME280;22011;59.912;30.300;2023-03-29T12:37:05;100901.09;;;0.90;75.21
35918;BME280;22011;59.912;30.300;2023-03-29T12:40:04;100894.59;;;0.96;75.47
35918;BME280;22011;59.912;30.300;2023-03-29T12:43:05;100895.00;;;0.90;75.02
35918;BME280;22011;59.912;30.300;2023-03-29T12:45:55;100903.38;;;0.82;74.57
35918;BME280;22011;59.912;30.300;2023-03-29T12:48:26;100902.09;;;0.75;74.38
35918;BME280;22011;59.912;30.300;2023-03-29T12:50:58;100903.56;;;0.79;74.74
35918;BME280;22011;59.912;30.300;2023-03-29T12:53:30;100912.38;;;0.78;74.34
35918;BME280;22011;59.912;30.300;2023-03-29T12:56:15;100911.69;;;0.89;75.28
35918;BME280;22011;59.912;30.300;2023-03-29T12:58:52;100907.28;;;0.89;75.14
35918;BME280;22011;59.912;30.300;2023-03-29T13:01:31;100918.63;;;0.90;74.43
35918;BME280;22011;59.912;30.300;2023-03-29T13:04:15;100913.91;;;0.95;75.15
35918;BME280;22011;59.912;30.300;2023-03-29T13:07:01;100917.06;;;1.00;74.97
35918;BME280;22011;59.912;30.300;2023-03-29T13:09:34;100911.38;;;0.93;73.96
35918;BME280;22011;59.912;30.300;2023-03-29T13:12:06;100901.84;;;0.92;73.42
35918;BME280;22011;59.912;30.300;2023-03-29T13:14:36;100910.84;;;0.88;73.91
35918;BME280;22011;59.912;30.300;2023-03-29T13:17:11;100913.28;;;0.91;74.03
35918;BME280;22011;59.912;30.300;2023-03-29T13:19:49;100910.53;;;0.93;73.92
35918;BME280;22011;59.912;30.300;2023-03-29T13:22:32;100928.63;;;0.97;74.16
35918;BME280;22011;59.912;30.300;2023-03-29T13:25:16;100914.75;;;0.95;74.22
35918;BME280;22011;59.912;30.300;2023-03-29T13:27:51;100921.34;;;0.88;74.50
35918;BME280;22011;59.912;30.300;2023-03-29T13:30:32;100919.06;;;0.96;74.87
35918;BME280;22011;59.912;30.300;2023-03-29T13:33:34;100917.72;;;1.04;74.65